sensor_id;sensor_type;location;lat;lon;timestamp;P1;durP1;ratioP1;P2;durP2;ratioP2
75885;SDS011;64561;44.018;10.144;2023-09-08T00:00:47;6.55;;;4.75;;
75885;SDS011;64561;44.018;10.144;2023-09-08T00:03:14;7.07;;;4.97;;
75885;SDS011;64561;44.018;10.144;2023-09-08T00:05:42;7.78;;;5.00;;
75885;SDS011;64561;44.018;10.144;2023-09-08T00:08:09;6.15;;;4.70;;
75885;SDS011;64561;44.018;10.144;2023-09-08T00:10:36;7.18;;;4.55;;
75885;SDS011;64561;44.018;10.144;2023-09-08T00:13:03;6.80;;;4.72;;
75885;SDS011;64561;44.018;10.144;2023-09-08T00:15:32;5.10;;;4.28;;
75885;SDS011;64561;44.018;10.144;2023-09-08T00:18:01;6.43;;;4.63;;
75885;SDS011;64561;44.018;10.144;2023-09-08T00:20:28;6.85;;;4.68;;
75885;SDS011;64561;44.018;10.144;2023-09-08T00:22:56;7.53;;;4.47;;
75885;SDS011;64561;44.018;10.144;2023-09-08T00:25:23;6.85;;;4.70;;
75885;SDS011;64561;44.018;10.144;2023-09-08T00:27:50;5.45;;;4.40;;
75885;SDS011;64561;44.018;10.144;2023-09-08T00:30:17;6.93;;;4.70;;
75885;SDS011;64561;44.018;10.144;2023-09-08T00:32:44;5.85;;;4.32;;
75885;SDS011;64561;44.018;10.144;2023-09-08T00:35:11;7.28;;;4.18;;
75885;SDS011;64561;44.018;10.144;2023-09-08T00:37:40;7.72;;;4.35;;
75885;SDS011;64561;44.018;10.144;2023-09-08T00:40:07;6.78;;;4.90;;
75885;SDS011;64561;44.018;10.144;2023-09-08T00:42:35;7.72;;;4.35;;
75885;SDS011;64561;44.018;10.144;2023-09-08T00:45:03;7.20;;;4.57;;
75885;SDS011;64561;44.018;10.144;2023-09-08T00:47:31;5.63;;;3.97;;
75885;SDS011;64561;44.018;10.144;2023-09-08T00:50:01;5.50;;;4.43;;
75885;SDS011;64561;44.018;10.144;2023-09-08T00:52:30;8.63;;;5.10;;
75885;SDS011;64561;44.018;10.144;2023-09-08T00:54:59;8.45;;;4.68;;
75885;SDS011;64561;44.018;10.144;2023-09-08T00:57:31;7.55;;;5.53;;
75885;SDS011;64561;44.018;10.144;2023-09-08T00:59:58;5.50;;;4.13;;
75885;SDS011;64561;44.018;10.144;2023-09-08T01:02:30;6.85;;;4.18;;
75885;SDS011;64561;44.018;10.144;2023-09-08T01:04:59;6.18;;;4.85;;
75885;SDS011;64561;44.018;10.144;2023-09-08T01:07:26;6.10;;;4.40;;
75885;SDS011;64561;44.018;10.144;2023-09-08T01:09:56;5.95;;;5.18;;
75885;SDS011;64561;44.018;10.144;2023-09-08T01:12:24;6.57;;;4.97;;
75885;SDS011;64561;44.018;10.144;2023-09-08T01:14:51;6.65;;;4.40;;
75885;SDS011;64561;44.018;10.144;2023-09-08T01:17:18;7.50;;;5.28;;
75885;SDS011;64561;44.018;10.144;2023-09-08T01:19:45;6.10;;;4.82;;
75885;SDS011;64561;44.018;10.144;2023-09-08T01:27:39;5.40;;;4.15;;
75885;SDS011;64561;44.018;10.144;2023-09-08T01:30:10;7.95;;;4.97;;
75885;SDS011;64561;44.018;10.144;2023-09-08T01:32:39;6.28;;;4.63;;
75885;SDS011;64561;44.018;10.144;2023-09-08T01:35:07;6.65;;;4.63;;
75885;SDS011;64561;44.018;10.144;2023-09-08T01:37:36;7.75;;;4.50;;
75885;SDS011;64561;44.018;10.144;2023-09-08T01:40:06;6.30;;;5.03;;
75885;SDS011;64561;44.018;10.144;2023-09-08T01:42:33;7.18;;;4.82;;
75885;SDS011;64561;44.018;10.144;2023-09-08T01:45:00;6.05;;;4.07;;
75885;SDS011;64561;44.018;10.144;2023-09-08T01:47:30;6.43;;;4.32;;
75885;SDS011;64561;44.018;10.144;2023-09-08T01:49:57;8.00;;;4.82;;
75885;SDS011;64561;44.018;10.144;2023-09-08T01:52:24;6.90;;;4.72;;
75885;SDS011;64561;44.018;10.144;2023-09-08T01:54:52;6.75;;;5.00;;
75885;SDS011;64561;44.018;10.144;2023-09-08T01:57:19;6.22;;;4.22;;
75885;SDS011;64561;44.018;10.144;2023-09-08T01:59:46;6.28;;;4.53;;
75885;SDS011;64561;44.018;10.144;2023-09-08T02:02:14;6.35;;;4.55;;
75885;SDS011;64561;44.018;10.144;2023-09-08T02:04:42;5.30;;;4.30;;
75885;SDS011;64561;44.018;10.144;2023-09-08T02:07:09;9.23;;;5.18;;
75885;SDS011;64561;44.018;10.144;2023-09-08T02:09:37;7.30;;;4.90;;
75885;SDS011;64561;44.018;10.144;2023-09-08T02:12:04;7.10;;;5.57;;
75885;SDS011;64561;44.018;10.144;2023-09-08T02:14:32;6.53;;;4.80;;
75885;SDS011;64561;44.018;10.144;2023-09-08T02:17:00;8.32;;;4.85;;
75885;SDS011;64561;44.018;10.144;2023-09-08T02:19:27;8.43;;;4.93;;
75885;SDS011;64561;44.018;10.144;2023-09-08T02:21:55;7.03;;;4.97;;
75885;SDS011;64561;44.018;10.144;2023-09-08T02:24:23;6.43;;;4.40;;
75885;SDS011;64561;44.018;10.144;2023-09-08T02:26:50;5.68;;;4.28;;
75885;SDS011;64561;44.018;10.144;2023-09-08T02:29:17;6.28;;;4.75;;
75885;SDS011;64561;44.018;10.144;2023-09-08T02:31:45;6.95;;;4.45;;
75885;SDS011;64561;44.018;10.144;2023-09-08T02:34:13;7.63;;;4.60;;
75885;SDS011;64561;44.018;10.144;2023-09-08T02:36:40;7.43;;;5.07;;
75885;SDS011;64561;44.018;10.144;2023-09-08T02:39:08;7.72;;;4.72;;
75885;SDS011;64561;44.018;10.144;2023-09-08T02:41:35;6.45;;;4.75;;
75885;SDS011;64561;44.018;10.144;2023-09-08T02:44:02;7.43;;;5.00;;
75885;SDS011;64561;44.018;10.144;2023-09-08T02:46:30;7.38;;;4.85;;
75885;SDS011;64561;44.018;10.144;2023-09-08T02:48:58;6.82;;;4.68;;
75885;SDS011;64561;44.018;10.144;2023-09-08T02:51:25;7.28;;;4.78;;
75885;SDS011;64561;44.018;10.144;2023-09-08T02:53:52;7.25;;;4.32;;
75885;SDS011;64561;44.018;10.144;2023-09-08T02:56:20;6.35;;;4.55;;
75885;SDS011;64561;44.018;10.144;2023-09-08T02:58:47;6.07;;;4.25;;
75885;SDS011;64561;44.018;10.144;2023-09-08T03:01:16;6.53;;;4.72;;
75885;SDS011;64561;44.018;10.144;2023-09-08T03:03:47;8.00;;;4.63;;
75885;SDS011;64561;44.018;10.144;2023-09-08T03:06:18;5.82;;;4.38;;
75885;SDS011;64561;44.018;10.144;2023-09-08T03:08:48;7.05;;;4.90;;
75885;SDS011;64561;44.018;10.144;2023-09-08T03:11:15;6.22;;;4.45;;
75885;SDS011;64561;44.018;10.144;2023-09-08T03:13:42;7.05;;;4.47;;
75885;SDS011;64561;44.018;10.144;2023-09-08T03:16:10;6.07;;;4.70;;
75885;SDS011;64561;44.018;10.144;2023-09-08T03:18:38;7.18;;;4.95;;
75885;SDS011;64561;44.018;10.144;2023-09-08T03:21:05;6.05;;;4.40;;
75885;SDS011;64561;44.018;10.144;2023-09-08T03:23:41;6.40;;;4.90;;
75885;SDS011;64561;44.018;10.144;2023-09-08T03:26:12;6.68;;;5.20;;
75885;SDS011;64561;44.018;10.144;2023-09-08T03:28:41;8.90;;;5.57;;
75885;SDS011;64561;44.018;10.144;2023-09-08T03:31:09;7.18;;;4.80;;
75885;SDS011;64561;44.018;10.144;2023-09-08T03:33:37;7.18;;;5.03;;
75885;SDS011;64561;44.018;10.144;2023-09-08T03:36:07;8.15;;;4.82;;
75885;SDS011;64561;44.018;10.144;2023-09-08T03:38:35;7.97;;;5.53;;
75885;SDS011;64561;44.018;10.144;2023-09-08T03:41:04;8.18;;;4.78;;
75885;SDS011;64561;44.018;10.144;2023-09-08T03:43:31;6.60;;;4.80;;
75885;SDS011;64561;44.018;10.144;2023-09-08T03:46:00;5.78;;;4.30;;
75885;SDS011;64561;44.018;10.144;2023-09-08T03:48:28;6.22;;;4.50;;
75885;SDS011;64561;44.018;10.144;2023-09-08T03:50:55;7.93;;;4.72;;
75885;SDS011;64561;44.018;10.144;2023-09-08T03:53:22;5.70;;;4.53;;
75885;SDS011;64561;44.018;10.144;2023-09-08T03:55:50;6.90;;;4.93;;
75885;SDS011;64561;44.018;10.144;2023-09-08T03:58:17;6.80;;;4.55;;
75885;SDS011;64561;44.018;10.144;2023-09-08T04:00:45;9.85;;;3.90;;
75885;SDS011;64561;44.018;10.144;2023-09-08T04:03:12;5.63;;;3.97;;
75885;SDS011;64561;44.018;10.144;2023-09-08T04:05:39;6.05;;;4.40;;
75885;SDS011;64561;44.018;10.144;2023-09-08T04:08:06;7.60;;;4.90;;
75885;SDS011;64561;44.018;10.144;2023-09-08T04:10:33;6.85;;;4.47;;
75885;SDS011;64561;44.018;10.144;2023-09-08T04:13:01;13.40;;;7.53;;
75885;SDS011;64561;44.018;10.144;2023-09-08T04:15:28;15.95;;;10.27;;
75885;SDS011;64561;44.018;10.144;2023-09-08T04:17:55;12.63;;;8.35;;
75885;SDS011;64561;44.018;10.144;2023-09-08T04:20:24;8.50;;;5.47;;
75885;SDS011;64561;44.018;10.144;2023-09-08T04:22:53;8.05;;;4.90;;
75885;SDS011;64561;44.018;10.144;2023-09-08T04:25:20;8.43;;;5.57;;
75885;SDS011;64561;44.018;10.144;2023-09-08T04:27:48;6.05;;;4.43;;
75885;SDS011;64561;44.018;10.144;2023-09-08T04:30:15;7.28;;;5.03;;
75885;SDS011;64561;44.018;10.144;2023-09-08T04:32:44;8.63;;;5.88;;
75885;SDS011;64561;44.018;10.144;2023-09-08T04:35:12;7.18;;;5.20;;
75885;SDS011;64561;44.018;10.144;2023-09-08T04:37:39;6.35;;;5.05;;
75885;SDS011;64561;44.018;10.144;2023-09-08T04:40:07;6.68;;;4.85;;
75885;SDS011;64561;44.018;10.144;2023-09-08T04:42:34;6.65;;;4.63;;
75885;SDS011;64561;44.018;10.144;2023-09-08T04:45:02;6.22;;;4.32;;
75885;SDS011;64561;44.018;10.144;2023-09-08T04:47:30;10.45;;;4.63;;
75885;SDS011;64561;44.018;10.144;2023-09-08T04:49:58;8.23;;;5.00;;
75885;SDS011;64561;44.018;10.144;2023-09-08T04:52:25;6.43;;;4.40;;
75885;SDS011;64561;44.018;10.144;2023-09-08T04:54:53;7.13;;;5.05;;
75885;SDS011;64561;44.018;10.144;2023-09-08T04:57:20;7.63;;;5.13;;
75885;SDS011;64561;44.018;10.144;2023-09-08T04:59:55;8.90;;;4.82;;
75885;SDS011;64561;44.018;10.144;2023-09-08T05:02:23;6.55;;;5.20;;
75885;SDS011;64561;44.018;10.144;2023-09-08T05:04:51;6.10;;;4.38;;
75885;SDS011;64561;44.018;10.144;2023-09-08T05:07:18;8.40;;;5.10;;
75885;SDS011;64561;44.018;10.144;2023-09-08T05:09:46;8.07;;;5.20;;
75885;SDS011;64561;44.018;10.144;2023-09-08T05:12:14;7.50;;;5.00;;
75885;SDS011;64561;44.018;10.144;2023-09-08T05:14:41;8.82;;;5.22;;
75885;SDS011;64561;44.018;10.144;2023-09-08T05:17:09;10.25;;;5.30;;
75885;SDS011;64561;44.018;10.144;2023-09-08T05:19:39;9.23;;;5.78;;
75885;SDS011;64561;44.018;10.144;2023-09-08T05:22:06;9.63;;;5.93;;
75885;SDS011;64561;44.018;10.144;2023-09-08T05:24:34;9.95;;;5.63;;
75885;SDS011;64561;44.018;10.144;2023-09-08T05:27:01;13.07;;;5.68;;
75885;SDS011;64561;44.018;10.144;2023-09-08T05:29:28;8.10;;;5.38;;
75885;SDS011;64561;44.018;10.144;2023-09-08T05:31:55;8.13;;;4.93;;
75885;SDS011;64561;44.018;10.144;2023-09-08T05:34:23;8.98;;;6.28;;
75885;SDS011;64561;44.018;10.144;2023-09-08T05:36:50;9.13;;;5.22;;
75885;SDS011;64561;44.018;10.144;2023-09-08T05:39:17;10.50;;;5.03;;
75885;SDS011;64561;44.018;10.144;2023-09-08T05:41:46;7.78;;;5.47;;
75885;SDS011;64561;44.018;10.144;2023-09-08T05:44:14;10.13;;;5.57;;
75885;SDS011;64561;44.018;10.144;2023-09-08T05:46:41;14.48;;;5.10;;
75885;SDS011;64561;44.018;10.144;2023-09-08T05:49:08;9.60;;;6.25;;
75885;SDS011;64561;44.018;10.144;2023-09-08T05:51:36;12.38;;;7.25;;
75885;SDS011;64561;44.018;10.144;2023-09-08T05:54:04;10.32;;;6.25;;
75885;SDS011;64561;44.018;10.144;2023-09-08T05:56:33;8.18;;;5.50;;
75885;SDS011;64561;44.018;10.144;2023-09-08T05:59:00;8.27;;;5.75;;
75885;SDS011;64561;44.018;10.144;2023-09-08T06:01:30;7.78;;;5.45;;
75885;SDS011;64561;44.018;10.144;2023-09-08T06:04:00;6.50;;;5.15;;
75885;SDS011;64561;44.018;10.144;2023-09-08T06:06:29;11.02;;;5.00;;
75885;SDS011;64561;44.018;10.144;2023-09-08T06:08:58;8.48;;;5.35;;
75885;SDS011;64561;44.018;10.144;2023-09-08T06:11:27;8.10;;;4.72;;
75885;SDS011;64561;44.018;10.144;2023-09-08T06:13:54;7.90;;;4.85;;
75885;SDS011;64561;44.018;10.144;2023-09-08T06:16:30;7.72;;;5.10;;
75885;SDS011;64561;44.018;10.144;2023-09-08T06:18:57;6.40;;;4.53;;
75885;SDS011;64561;44.018;10.144;2023-09-08T06:21:25;8.48;;;4.82;;
75885;SDS011;64561;44.018;10.144;2023-09-08T06:23:53;7.20;;;4.70;;
75885;SDS011;64561;44.018;10.144;2023-09-08T06:26:20;6.55;;;4.63;;
75885;SDS011;64561;44.018;10.144;2023-09-08T06:28:47;10.18;;;5.40;;
75885;SDS011;64561;44.018;10.144;2023-09-08T06:31:14;11.60;;;5.75;;
75885;SDS011;64561;44.018;10.144;2023-09-08T06:33:43;9.48;;;5.45;;
75885;SDS011;64561;44.018;10.144;2023-09-08T06:36:10;11.68;;;4.80;;
75885;SDS011;64561;44.018;10.144;2023-09-08T06:38:37;7.15;;;4.72;;
75885;SDS011;64561;44.018;10.144;2023-09-08T06:41:08;6.65;;;4.85;;
75885;SDS011;64561;44.018;10.144;2023-09-08T06:43:40;7.53;;;5.07;;
75885;SDS011;64561;44.018;10.144;2023-09-08T06:46:15;8.30;;;5.45;;
75885;SDS011;64561;44.018;10.144;2023-09-08T06:48:43;6.75;;;4.32;;
75885;SDS011;64561;44.018;10.144;2023-09-08T06:51:11;7.60;;;4.88;;
75885;SDS011;64561;44.018;10.144;2023-09-08T06:53:39;14.68;;;5.85;;
75885;SDS011;64561;44.018;10.144;2023-09-08T06:56:06;7.75;;;5.20;;
75885;SDS011;64561;44.018;10.144;2023-09-08T06:58:33;10.32;;;6.93;;
75885;SDS011;64561;44.018;10.144;2023-09-08T07:01:02;15.27;;;10.07;;
75885;SDS011;64561;44.018;10.144;2023-09-08T07:03:30;20.83;;;11.68;;
75885;SDS011;64561;44.018;10.144;2023-09-08T07:06:06;20.15;;;12.75;;
75885;SDS011;64561;44.018;10.144;2023-09-08T07:08:33;23.90;;;12.40;;
75885;SDS011;64561;44.018;10.144;2023-09-08T07:11:01;15.77;;;8.65;;
75885;SDS011;64561;44.018;10.144;2023-09-08T07:13:28;10.48;;;6.90;;
75885;SDS011;64561;44.018;10.144;2023-09-08T07:15:57;12.60;;;7.80;;
75885;SDS011;64561;44.018;10.144;2023-09-08T07:18:25;11.02;;;7.10;;
75885;SDS011;64561;44.018;10.144;2023-09-08T07:20:52;10.73;;;6.97;;
75885;SDS011;64561;44.018;10.144;2023-09-08T07:23:20;13.02;;;8.20;;
75885;SDS011;64561;44.018;10.144;2023-09-08T07:25:48;16.30;;;10.23;;
75885;SDS011;64561;44.018;10.144;2023-09-08T07:28:19;16.92;;;10.15;;
75885;SDS011;64561;44.018;10.144;2023-09-08T07:30:49;13.90;;;8.98;;
75885;SDS011;64561;44.018;10.144;2023-09-08T07:33:17;12.18;;;8.23;;
75885;SDS011;64561;44.018;10.144;2023-09-08T07:35:47;14.35;;;7.13;;
75885;SDS011;64561;44.018;10.144;2023-09-08T07:38:14;15.80;;;8.52;;
75885;SDS011;64561;44.018;10.144;2023-09-08T07:40:41;13.25;;;7.80;;
75885;SDS011;64561;44.018;10.144;2023-09-08T07:43:08;22.08;;;12.15;;
75885;SDS011;64561;44.018;10.144;2023-09-08T07:45:36;30.58;;;18.50;;
75885;SDS011;64561;44.018;10.144;2023-09-08T07:48:03;40.67;;;21.92;;
75885;SDS011;64561;44.018;10.144;2023-09-08T07:50:30;38.00;;;19.77;;
75885;SDS011;64561;44.018;10.144;2023-09-08T07:52:58;30.08;;;16.65;;
75885;SDS011;64561;44.018;10.144;2023-09-08T07:55:25;24.15;;;13.07;;
75885;SDS011;64561;44.018;10.144;2023-09-08T07:57:57;14.27;;;8.80;;
75885;SDS011;64561;44.018;10.144;2023-09-08T08:00:24;13.93;;;8.48;;
75885;SDS011;64561;44.018;10.144;2023-09-08T08:02:53;12.52;;;7.55;;
75885;SDS011;64561;44.018;10.144;2023-09-08T08:05:22;15.07;;;8.90;;
75885;SDS011;64561;44.018;10.144;2023-09-08T08:07:49;18.00;;;9.82;;
75885;SDS011;64561;44.018;10.144;2023-09-08T08:10:17;14.40;;;9.27;;
75885;SDS011;64561;44.018;10.144;2023-09-08T08:12:45;17.48;;;10.15;;
75885;SDS011;64561;44.018;10.144;2023-09-08T08:15:13;15.13;;;8.23;;
75885;SDS011;64561;44.018;10.144;2023-09-08T08:17:40;11.20;;;6.85;;
75885;SDS011;64561;44.018;10.144;2023-09-08T08:20:08;12.50;;;7.13;;
75885;SDS011;64561;44.018;10.144;2023-09-08T08:22:44;14.48;;;7.72;;
75885;SDS011;64561;44.018;10.144;2023-09-08T08:25:12;14.68;;;9.18;;
75885;SDS011;64561;44.018;10.144;2023-09-08T08:27:40;15.52;;;8.88;;
75885;SDS011;64561;44.018;10.144;2023-09-08T08:30:08;15.38;;;7.43;;
75885;SDS011;64561;44.018;10.144;2023-09-08T08:32:47;9.48;;;6.93;;
75885;SDS011;64561;44.018;10.144;2023-09-08T08:35:15;12.20;;;6.97;;
75885;SDS011;64561;44.018;10.144;2023-09-08T08:37:42;9.20;;;6.25;;
75885;SDS011;64561;44.018;10.144;2023-09-08T08:40:09;9.18;;;5.82;;
75885;SDS011;64561;44.018;10.144;2023-09-08T08:42:40;10.00;;;5.88;;
75885;SDS011;64561;44.018;10.144;2023-09-08T08:45:08;11.40;;;5.47;;
75885;SDS011;64561;44.018;10.144;2023-09-08T08:47:35;7.88;;;5.40;;
75885;SDS011;64561;44.018;10.144;2023-09-08T08:50:03;7.13;;;5.10;;
75885;SDS011;64561;44.018;10.144;2023-09-08T08:52:32;8.38;;;5.60;;
75885;SDS011;64561;44.018;10.144;2023-09-08T08:55:00;8.52;;;5.45;;
75885;SDS011;64561;44.018;10.144;2023-09-08T08:57:29;6.05;;;4.80;;
75885;SDS011;64561;44.018;10.144;2023-09-08T08:59:57;7.45;;;4.90;;
75885;SDS011;64561;44.018;10.144;2023-09-08T09:02:25;8.00;;;4.82;;
75885;SDS011;64561;44.018;10.144;2023-09-08T09:04:55;6.63;;;4.35;;
75885;SDS011;64561;44.018;10.144;2023-09-08T09:07:23;9.35;;;5.00;;
75885;SDS011;64561;44.018;10.144;2023-09-08T09:09:51;9.88;;;5.70;;
75885;SDS011;64561;44.018;10.144;2023-09-08T09:12:19;7.32;;;4.78;;
75885;SDS011;64561;44.018;10.144;2023-09-08T09:14:51;5.43;;;4.63;;
75885;SDS011;64561;44.018;10.144;2023-09-08T09:17:20;10.77;;;6.18;;
75885;SDS011;64561;44.018;10.144;2023-09-08T09:19:48;11.30;;;6.45;;
75885;SDS011;64561;44.018;10.144;2023-09-08T09:22:18;8.13;;;5.13;;
75885;SDS011;64561;44.018;10.144;2023-09-08T09:24:47;7.30;;;4.45;;
75885;SDS011;64561;44.018;10.144;2023-09-08T09:27:15;7.05;;;4.70;;
75885;SDS011;64561;44.018;10.144;2023-09-08T09:29:46;7.70;;;4.68;;
75885;SDS011;64561;44.018;10.144;2023-09-08T09:32:15;6.53;;;4.53;;
75885;SDS011;64561;44.018;10.144;2023-09-08T09:34:53;7.53;;;4.75;;
75885;SDS011;64561;44.018;10.144;2023-09-08T09:37:21;8.25;;;4.95;;
75885;SDS011;64561;44.018;10.144;2023-09-08T09:39:49;5.57;;;4.97;;
75885;SDS011;64561;44.018;10.144;2023-09-08T09:42:18;6.97;;;4.35;;
75885;SDS011;64561;44.018;10.144;2023-09-08T09:44:47;6.22;;;4.68;;
75885;SDS011;64561;44.018;10.144;2023-09-08T09:47:15;7.13;;;5.10;;
75885;SDS011;64561;44.018;10.144;2023-09-08T09:49:43;5.53;;;4.78;;
75885;SDS011;64561;44.018;10.144;2023-09-08T09:52:19;6.65;;;4.55;;
75885;SDS011;64561;44.018;10.144;2023-09-08T09:54:49;10.23;;;5.47;;
75885;SDS011;64561;44.018;10.144;2023-09-08T09:57:21;8.13;;;5.28;;
75885;SDS011;64561;44.018;10.144;2023-09-08T09:59:49;7.90;;;6.20;;
75885;SDS011;64561;44.018;10.144;2023-09-08T10:02:18;6.97;;;5.18;;
75885;SDS011;64561;44.018;10.144;2023-09-08T10:04:49;7.20;;;5.07;;
75885;SDS011;64561;44.018;10.144;2023-09-08T10:07:17;7.38;;;5.30;;
75885;SDS011;64561;44.018;10.144;2023-09-08T10:09:45;7.10;;;5.35;;
75885;SDS011;64561;44.018;10.144;2023-09-08T10:12:14;6.53;;;4.97;;
75885;SDS011;64561;44.018;10.144;2023-09-08T10:14:43;8.63;;;5.45;;
75885;SDS011;64561;44.018;10.144;2023-09-08T10:17:12;6.28;;;4.95;;
75885;SDS011;64561;44.018;10.144;2023-09-08T10:19:45;5.82;;;4.78;;
75885;SDS011;64561;44.018;10.144;2023-09-08T10:22:22;6.47;;;5.15;;
75885;SDS011;64561;44.018;10.144;2023-09-08T10:24:53;5.38;;;4.88;;
75885;SDS011;64561;44.018;10.144;2023-09-08T10:27:22;7.13;;;5.00;;
75885;SDS011;64561;44.018;10.144;2023-09-08T10:29:50;9.40;;;5.45;;
75885;SDS011;64561;44.018;10.144;2023-09-08T10:32:18;7.85;;;4.40;;
75885;SDS011;64561;44.018;10.144;2023-09-08T10:34:49;8.98;;;5.43;;
75885;SDS011;64561;44.018;10.144;2023-09-08T10:39:55;7.30;;;4.63;;
75885;SDS011;64561;44.018;10.144;2023-09-08T10:42:40;6.10;;;4.47;;
75885;SDS011;64561;44.018;10.144;2023-09-08T10:45:15;8.93;;;4.70;;
75885;SDS011;64561;44.018;10.144;2023-09-08T10:52:44;5.00;;;4.50;;
75885;SDS011;64561;44.018;10.144;2023-09-08T10:55:12;5.65;;;4.25;;
75885;SDS011;64561;44.018;10.144;2023-09-08T10:57:44;7.43;;;4.85;;
75885;SDS011;64561;44.018;10.144;2023-09-08T11:00:12;5.45;;;4.05;;
75885;SDS011;64561;44.018;10.144;2023-09-08T11:02:50;6.07;;;4.68;;
75885;SDS011;64561;44.018;10.144;2023-09-08T11:05:17;5.10;;;4.50;;
75885;SDS011;64561;44.018;10.144;2023-09-08T11:07:47;6.20;;;4.47;;
75885;SDS011;64561;44.018;10.144;2023-09-08T11:10:19;4.68;;;3.85;;
75885;SDS011;64561;44.018;10.144;2023-09-08T11:12:46;9.88;;;4.82;;
75885;SDS011;64561;44.018;10.144;2023-09-08T11:15:15;5.57;;;4.13;;
75885;SDS011;64561;44.018;10.144;2023-09-08T11:17:43;5.95;;;4.15;;
75885;SDS011;64561;44.018;10.144;2023-09-08T11:20:11;5.43;;;3.95;;
75885;SDS011;64561;44.018;10.144;2023-09-08T11:22:39;6.10;;;4.70;;
75885;SDS011;64561;44.018;10.144;2023-09-08T11:25:08;6.72;;;4.40;;
75885;SDS011;64561;44.018;10.144;2023-09-08T11:27:38;5.93;;;4.55;;
75885;SDS011;64561;44.018;10.144;2023-09-08T11:30:07;6.57;;;4.45;;
75885;SDS011;64561;44.018;10.144;2023-09-08T11:32:35;11.25;;;5.45;;
75885;SDS011;64561;44.018;10.144;2023-09-08T11:35:06;7.00;;;5.05;;
75885;SDS011;64561;44.018;10.144;2023-09-08T11:37:37;6.05;;;4.78;;
75885;SDS011;64561;44.018;10.144;2023-09-08T11:40:06;6.30;;;4.68;;
75885;SDS011;64561;44.018;10.144;2023-09-08T11:42:41;5.75;;;5.05;;
75885;SDS011;64561;44.018;10.144;2023-09-08T11:45:14;7.38;;;5.18;;
75885;SDS011;64561;44.018;10.144;2023-09-08T11:47:45;6.72;;;4.90;;
75885;SDS011;64561;44.018;10.144;2023-09-08T11:50:12;6.75;;;4.63;;
75885;SDS011;64561;44.018;10.144;2023-09-08T11:52:46;6.07;;;5.25;;
75885;SDS011;64561;44.018;10.144;2023-09-08T11:55:15;7.40;;;4.85;;
75885;SDS011;64561;44.018;10.144;2023-09-08T11:57:49;5.50;;;4.35;;
75885;SDS011;64561;44.018;10.144;2023-09-08T12:00:21;7.07;;;4.80;;
75885;SDS011;64561;44.018;10.144;2023-09-08T12:02:50;7.53;;;5.20;;
75885;SDS011;64561;44.018;10.144;2023-09-08T12:05:21;5.75;;;4.55;;
75885;SDS011;64561;44.018;10.144;2023-09-08T12:07:53;5.45;;;4.82;;
75885;SDS011;64561;44.018;10.144;2023-09-08T12:10:23;6.20;;;4.50;;
75885;SDS011;64561;44.018;10.144;2023-09-08T12:12:52;7.03;;;4.68;;
75885;SDS011;64561;44.018;10.144;2023-09-08T12:18:07;6.18;;;4.88;;
75885;SDS011;64561;44.018;10.144;2023-09-08T12:23:05;6.28;;;4.53;;
75885;SDS011;64561;44.018;10.144;2023-09-08T12:25:45;5.70;;;4.80;;
75885;SDS011;64561;44.018;10.144;2023-09-08T12:28:19;5.38;;;4.78;;
75885;SDS011;64561;44.018;10.144;2023-09-08T12:30:50;6.25;;;5.13;;
75885;SDS011;64561;44.018;10.144;2023-09-08T12:33:20;5.65;;;4.55;;
75885;SDS011;64561;44.018;10.144;2023-09-08T12:35:48;5.72;;;4.97;;
75885;SDS011;64561;44.018;10.144;2023-09-08T12:40:45;6.15;;;4.38;;
75885;SDS011;64561;44.018;10.144;2023-09-08T12:43:13;8.43;;;5.03;;
75885;SDS011;64561;44.018;10.144;2023-09-08T12:45:54;8.55;;;5.10;;
75885;SDS011;64561;44.018;10.144;2023-09-08T12:48:23;6.63;;;5.18;;
75885;SDS011;64561;44.018;10.144;2023-09-08T12:50:51;6.20;;;5.50;;
75885;SDS011;64561;44.018;10.144;2023-09-08T12:53:19;8.10;;;5.20;;
75885;SDS011;64561;44.018;10.144;2023-09-08T12:55:47;5.35;;;4.85;;
75885;SDS011;64561;44.018;10.144;2023-09-08T12:58:15;6.25;;;4.60;;
75885;SDS011;64561;44.018;10.144;2023-09-08T13:00:43;5.07;;;4.20;;
75885;SDS011;64561;44.018;10.144;2023-09-08T13:03:11;5.10;;;4.05;;
75885;SDS011;64561;44.018;10.144;2023-09-08T13:05:38;6.70;;;4.88;;
75885;SDS011;64561;44.018;10.144;2023-09-08T13:08:06;7.03;;;4.28;;
75885;SDS011;64561;44.018;10.144;2023-09-08T13:10:34;6.55;;;4.40;;
75885;SDS011;64561;44.018;10.144;2023-09-08T13:13:01;4.95;;;3.65;;
75885;SDS011;64561;44.018;10.144;2023-09-08T13:15:28;5.45;;;4.45;;
75885;SDS011;64561;44.018;10.144;2023-09-08T13:17:56;5.88;;;4.35;;
75885;SDS011;64561;44.018;10.144;2023-09-08T13:20:23;4.97;;;4.10;;
75885;SDS011;64561;44.018;10.144;2023-09-08T13:22:50;4.88;;;4.22;;
75885;SDS011;64561;44.018;10.144;2023-09-08T13:25:18;4.60;;;4.13;;
75885;SDS011;64561;44.018;10.144;2023-09-08T13:27:45;6.35;;;4.32;;
75885;SDS011;64561;44.018;10.144;2023-09-08T13:30:15;5.35;;;4.18;;
75885;SDS011;64561;44.018;10.144;2023-09-08T13:32:43;5.85;;;4.28;;
75885;SDS011;64561;44.018;10.144;2023-09-08T13:35:11;6.03;;;4.10;;
75885;SDS011;64561;44.018;10.144;2023-09-08T13:37:39;5.63;;;4.40;;
75885;SDS011;64561;44.018;10.144;2023-09-08T13:40:06;5.80;;;4.53;;
75885;SDS011;64561;44.018;10.144;2023-09-08T13:42:35;4.70;;;4.18;;
75885;SDS011;64561;44.018;10.144;2023-09-08T13:45:03;8.65;;;4.13;;
75885;SDS011;64561;44.018;10.144;2023-09-08T13:47:31;4.97;;;4.03;;
75885;SDS011;64561;44.018;10.144;2023-09-08T13:50:00;5.13;;;4.30;;
75885;SDS011;64561;44.018;10.144;2023-09-08T13:52:32;6.18;;;4.43;;
75885;SDS011;64561;44.018;10.144;2023-09-08T13:55:07;4.55;;;3.97;;
75885;SDS011;64561;44.018;10.144;2023-09-08T13:57:37;5.03;;;4.07;;
75885;SDS011;64561;44.018;10.144;2023-09-08T14:02:42;6.20;;;4.22;;
75885;SDS011;64561;44.018;10.144;2023-09-08T14:05:17;5.00;;;4.03;;
75885;SDS011;64561;44.018;10.144;2023-09-08T14:10:40;5.95;;;3.97;;
75885;SDS011;64561;44.018;10.144;2023-09-08T14:13:23;6.00;;;4.35;;
75885;SDS011;64561;44.018;10.144;2023-09-08T14:15:51;5.88;;;4.68;;
75885;SDS011;64561;44.018;10.144;2023-09-08T14:18:18;5.80;;;4.38;;
75885;SDS011;64561;44.018;10.144;2023-09-08T14:20:45;4.70;;;4.25;;
75885;SDS011;64561;44.018;10.144;2023-09-08T14:23:12;5.68;;;4.38;;
75885;SDS011;64561;44.018;10.144;2023-09-08T14:25:39;5.32;;;3.95;;
75885;SDS011;64561;44.018;10.144;2023-09-08T14:28:07;7.68;;;4.80;;
75885;SDS011;64561;44.018;10.144;2023-09-08T14:30:34;5.20;;;4.20;;
75885;SDS011;64561;44.018;10.144;2023-09-08T14:33:02;6.40;;;4.47;;
75885;SDS011;64561;44.018;10.144;2023-09-08T14:35:30;5.82;;;4.15;;
75885;SDS011;64561;44.018;10.144;2023-09-08T14:37:57;4.78;;;4.20;;
75885;SDS011;64561;44.018;10.144;2023-09-08T14:40:24;4.85;;;4.03;;
75885;SDS011;64561;44.018;10.144;2023-09-08T14:42:51;5.80;;;4.10;;
75885;SDS011;64561;44.018;10.144;2023-09-08T14:45:20;5.57;;;4.47;;
75885;SDS011;64561;44.018;10.144;2023-09-08T14:47:47;5.35;;;4.38;;
75885;SDS011;64561;44.018;10.144;2023-09-08T14:50:15;6.90;;;4.63;;
75885;SDS011;64561;44.018;10.144;2023-09-08T14:52:43;7.75;;;4.35;;
75885;SDS011;64561;44.018;10.144;2023-09-08T14:55:10;7.68;;;4.15;;
75885;SDS011;64561;44.018;10.144;2023-09-08T14:57:37;5.70;;;4.35;;
75885;SDS011;64561;44.018;10.144;2023-09-08T15:00:04;6.88;;;4.18;;
75885;SDS011;64561;44.018;10.144;2023-09-08T15:02:35;5.35;;;3.90;;
75885;SDS011;64561;44.018;10.144;2023-09-08T15:05:02;6.72;;;4.50;;